createdAt,value
2022-12-23T00:01:30.187Z,10.80
2022-12-23T00:04:00.606Z,10.80
2022-12-23T00:06:29.055Z,10.80
2022-12-23T00:08:58.383Z,10.80
2022-12-23T00:11:28.934Z,10.80
2022-12-23T00:14:20.564Z,10.70
2022-12-23T00:16:49.600Z,10.80
2022-12-23T00:19:16.374Z,10.80
2022-12-23T00:21:43.054Z,10.80
2022-12-23T00:24:12.334Z,10.90
2022-12-23T00:26:39.074Z,10.80
2022-12-23T00:29:05.761Z,10.80
2022-12-23T00:31:32.509Z,10.80
2022-12-23T00:33:59.307Z,10.80
2022-12-23T00:36:30.639Z,10.80
2022-12-23T00:39:17.203Z,10.80
2022-12-23T00:42:02.600Z,10.90
2022-12-23T00:44:29.353Z,10.70
2022-12-23T00:46:56.029Z,10.70
2022-12-23T00:49:44.329Z,10.80
2022-12-23T00:52:15.785Z,10.70
2022-12-23T00:54:43.016Z,10.70
2022-12-23T00:57:09.774Z,10.70
2022-12-23T00:59:36.511Z,10.80
2022-12-23T01:02:30.864Z,10.70
2022-12-23T01:05:16.155Z,10.70
2022-12-23T01:07:42.877Z,10.70
2022-12-23T01:10:09.941Z,10.70
2022-12-23T01:12:38.915Z,10.70
2022-12-23T01:15:06.339Z,10.70
2022-12-23T01:17:33.030Z,10.80
2022-12-23T01:19:59.748Z,10.70
2022-12-23T01:22:26.392Z,10.70
2022-12-23T01:24:53.127Z,10.70
2022-12-23T01:27:19.838Z,10.60
2022-12-23T01:29:46.620Z,10.60
2022-12-23T01:32:14.229Z,10.60
2022-12-23T01:34:43.314Z,10.70
2022-12-23T01:37:10.146Z,10.70
2022-12-23T01:39:39.242Z,10.70
2022-12-23T01:42:35.699Z,10.70
2022-12-23T01:45:29.327Z,10.70
2022-12-23T01:48:09.884Z,10.70
2022-12-23T01:50:49.303Z,10.70
2022-12-23T01:53:22.894Z,10.70
2022-12-23T01:56:29.291Z,10.70
2022-12-23T01:59:00.529Z,10.80
2022-12-23T02:01:49.320Z,10.70
2022-12-23T02:04:22.988Z,10.80
2022-12-23T02:07:11.127Z,10.80
2022-12-23T02:09:40.163Z,10.70
2022-12-23T02:12:37.103Z,10.70
2022-12-23T02:15:40.562Z,10.70
2022-12-23T02:18:25.786Z,10.70
2022-12-23T02:20:57.992Z,10.70
2022-12-23T02:23:48.238Z,10.70
2022-12-23T02:26:33.089Z,10.70
2022-12-23T02:29:30.284Z,10.80
2022-12-23T02:32:05.191Z,10.80
2022-12-23T02:34:40.444Z,10.70
2022-12-23T02:37:27.381Z,10.80
2022-12-23T02:40:01.093Z,10.80
2022-12-23T02:42:36.660Z,10.80
2022-12-23T02:45:18.548Z,10.90
2022-12-23T02:47:57.682Z,10.90
2022-12-23T02:50:34.209Z,10.90
2022-12-23T02:53:27.162Z,10.90
2022-12-23T02:55:56.320Z,10.90
2022-12-23T02:58:29.206Z,10.90
2022-12-23T03:00:59.949Z,10.90
2022-12-23T03:03:27.197Z,11.00
2022-12-23T03:05:57.114Z,11.00
2022-12-23T03:08:30.208Z,11.00
2022-12-23T03:11:10.256Z,11.10
2022-12-23T03:13:39.789Z,11.10
2022-12-23T03:16:28.399Z,11.10
2022-12-23T03:19:18.779Z,11.10
2022-12-23T03:21:57.698Z,11.10
2022-12-23T03:24:27.076Z,11.10
2022-12-23T03:27:30.488Z,11.10
2022-12-23T03:30:01.918Z,11.10
2022-12-23T03:32:35.108Z,11.10
2022-12-23T03:35:06.401Z,11.20
2022-12-23T03:37:38.995Z,11.10
2022-12-23T03:40:15.278Z,11.10
2022-12-23T03:42:48.013Z,11.10
2022-12-23T03:45:38.219Z,11.00
2022-12-23T03:48:10.370Z,11.00
2022-12-23T03:50:42.888Z,11.00
2022-12-23T03:53:20.488Z,11.10
2022-12-23T03:56:10.678Z,11.10
2022-12-23T03:58:59.217Z,11.10
2022-12-23T04:01:41.218Z,11.10
2022-12-23T04:04:18.275Z,11.10
2022-12-23T04:06:57.821Z,11.10
2022-12-23T04:09:28.550Z,11.10
2022-12-23T04:11:56.711Z,11.10
2022-12-23T04:14:33.505Z,11.00
2022-12-23T04:17:00.248Z,11.00
2022-12-23T04:19:27.054Z,11.00
2022-12-23T04:21:57.799Z,11.00
2022-12-23T04:24:24.597Z,11.00
2022-12-23T04:26:53.421Z,11.00
2022-12-23T04:29:22.729Z,10.90
2022-12-23T04:31:49.512Z,10.80
2022-12-23T04:34:18.848Z,10.90
2022-12-23T04:36:45.541Z,10.90
2022-12-23T04:39:12.358Z,10.90
2022-12-23T04:41:41.531Z,10.80
2022-12-23T04:44:08.368Z,10.80
2022-12-23T04:46:35.103Z,10.90
2022-12-23T04:49:01.938Z,10.70
2022-12-23T04:51:31.189Z,10.70
2022-12-23T04:53:57.954Z,10.80
2022-12-23T04:56:24.652Z,10.70
2022-12-23T04:58:53.940Z,10.80
2022-12-23T05:01:25.392Z,10.70
2022-12-23T05:03:52.106Z,10.70
2022-12-23T05:06:18.764Z,10.70
2022-12-23T05:08:47.974Z,10.70
2022-12-23T05:11:14.662Z,10.70
2022-12-23T05:13:43.782Z,10.70
2022-12-23T05:16:15.103Z,10.80
2022-12-23T05:18:41.785Z,10.70
2022-12-23T05:21:08.779Z,10.70
2022-12-23T05:23:35.594Z,10.70
2022-12-23T05:26:02.485Z,10.70
2022-12-23T05:28:29.448Z,10.70
2022-12-23T05:31:04.721Z,10.70
2022-12-23T05:33:32.552Z,10.70
2022-12-23T05:35:59.940Z,10.70
2022-12-23T05:38:27.178Z,10.60
2022-12-23T05:40:54.363Z,10.60
2022-12-23T05:43:23.939Z,10.60
2022-12-23T05:45:51.219Z,10.70
2022-12-23T05:48:18.034Z,10.60
2022-12-23T05:50:44.957Z,10.60
2022-12-23T05:53:14.211Z,10.50
2022-12-23T05:55:43.069Z,10.60
2022-12-23T05:58:09.942Z,10.60
2022-12-23T06:00:36.958Z,10.60
2022-12-23T06:03:04.132Z,10.70
2022-12-23T06:05:31.063Z,10.70
2022-12-23T06:07:57.728Z,10.70
2022-12-23T06:10:26.921Z,10.80
2022-12-23T06:12:55.780Z,10.80
2022-12-23T06:15:22.641Z,10.80
2022-12-23T06:17:56.549Z,10.90
2022-12-23T06:20:23.218Z,10.90
2022-12-23T06:22:49.916Z,10.90
2022-12-23T06:25:19.548Z,10.90
2022-12-23T06:27:46.390Z,10.80
2022-12-23T06:30:14.308Z,10.80
2022-12-23T06:32:43.191Z,10.80
2022-12-23T06:35:10.369Z,10.80
2022-12-23T06:37:37.145Z,10.90
2022-12-23T06:40:04.447Z,10.90
2022-12-23T06:42:33.606Z,10.80
2022-12-23T06:45:03.009Z,10.80
2022-12-23T06:47:29.727Z,10.70
2022-12-23T06:49:56.453Z,10.70
2022-12-23T06:52:25.362Z,10.70
2022-12-23T06:54:52.016Z,10.70
2022-12-23T06:57:21.021Z,10.60
2022-12-23T06:59:47.704Z,10.60
2022-12-23T07:02:14.567Z,10.60
2022-12-23T07:04:41.416Z,10.60
2022-12-23T07:07:08.053Z,10.60
2022-12-23T07:09:34.838Z,10.60
2022-12-23T07:12:03.825Z,10.60
2022-12-23T07:14:35.225Z,10.60
2022-12-23T07:17:02.096Z,10.60
2022-12-23T07:19:28.811Z,10.60
2022-12-23T07:21:55.521Z,10.50
2022-12-23T07:24:22.265Z,10.50
2022-12-23T07:26:49.171Z,10.50
2022-12-23T07:29:15.908Z,10.50
2022-12-23T07:31:42.658Z,10.40
2022-12-23T07:34:11.778Z,10.40
2022-12-23T07:36:38.571Z,10.40
2022-12-23T07:39:07.977Z,10.30
2022-12-23T07:41:36.647Z,10.30
2022-12-23T07:44:03.354Z,10.40
2022-12-23T07:46:30.252Z,10.30
2022-12-23T07:48:57.090Z,10.30
2022-12-23T07:51:28.389Z,10.30
2022-12-23T07:53:55.288Z,10.30
2022-12-23T07:56:24.187Z,10.30
2022-12-23T07:58:52.465Z,10.40
2022-12-23T08:01:22.035Z,10.40
2022-12-23T08:03:49.156Z,10.50
2022-12-23T08:06:16.880Z,10.40
2022-12-23T08:08:45.862Z,10.50
2022-12-23T08:11:17.843Z,10.50
2022-12-23T08:13:45.732Z,10.50
2022-12-23T08:16:15.069Z,10.50
2022-12-23T08:18:44.506Z,10.50
2022-12-23T08:21:19.457Z,10.50
2022-12-23T08:23:47.554Z,10.50
2022-12-23T08:26:24.803Z,10.50
2022-12-23T08:28:55.468Z,10.60
2022-12-23T08:31:26.272Z,10.60
2022-12-23T08:33:58.182Z,10.60
2022-12-23T08:36:29.359Z,10.60
2022-12-23T08:39:00.597Z,10.60
2022-12-23T08:41:32.799Z,10.60
2022-12-23T08:43:59.581Z,10.60
2022-12-23T08:46:26.855Z,10.60
2022-12-23T08:48:56.282Z,10.60
2022-12-23T08:51:26.948Z,10.50
2022-12-23T08:54:01.025Z,10.50
2022-12-23T08:56:36.040Z,10.50
2022-12-23T08:59:03.708Z,10.60
2022-12-23T09:01:32.898Z,10.60
2022-12-23T09:04:03.608Z,10.60
2022-12-23T09:06:38.829Z,10.60
2022-12-23T09:09:06.550Z,10.60
2022-12-23T09:11:35.907Z,10.70
2022-12-23T09:14:03.315Z,10.60
2022-12-23T09:16:30.421Z,10.60
2022-12-23T09:18:57.370Z,10.60
2022-12-23T09:21:24.537Z,10.60
2022-12-23T09:23:51.713Z,10.50
2022-12-23T09:26:24.247Z,10.50
2022-12-23T09:28:51.511Z,10.50
2022-12-23T09:31:21.728Z,10.50
2022-12-23T09:33:50.418Z,10.50
2022-12-23T09:36:17.481Z,10.50
2022-12-23T09:38:44.676Z,10.60
2022-12-23T09:41:14.172Z,10.60
2022-12-23T09:44:03.600Z,10.60
2022-12-23T09:46:34.209Z,10.70
2022-12-23T09:49:05.756Z,10.70
2022-12-23T09:51:33.510Z,10.80
2022-12-23T09:54:22.938Z,10.80
2022-12-23T09:56:58.696Z,10.90
2022-12-23T09:59:39.245Z,11.00
2022-12-23T10:02:18.044Z,11.00
2022-12-23T10:04:48.107Z,11.10
2022-12-23T10:07:40.056Z,11.20
2022-12-23T10:10:18.065Z,11.10
2022-12-23T10:12:52.511Z,11.10
2022-12-23T10:15:44.327Z,11.10
2022-12-23T10:18:24.512Z,11.00
2022-12-23T10:21:01.556Z,11.00
2022-12-23T10:23:39.799Z,11.00
2022-12-23T10:26:33.522Z,11.00
2022-12-23T10:29:19.210Z,10.90
2022-12-23T10:32:06.652Z,11.00
2022-12-23T10:34:51.920Z,10.90
2022-12-23T10:37:34.219Z,10.90
2022-12-23T10:40:31.685Z,10.90
2022-12-23T10:43:22.369Z,11.00
2022-12-23T10:46:13.947Z,10.90
2022-12-23T10:48:58.871Z,10.90
2022-12-23T10:51:34.169Z,11.00
2022-12-23T10:54:09.119Z,11.00
2022-12-23T10:56:36.093Z,11.00
2022-12-23T10:59:05.629Z,11.00
2022-12-23T11:01:33.140Z,11.00
2022-12-23T11:04:03.992Z,11.10
2022-12-23T11:06:37.172Z,11.10
2022-12-23T11:09:12.155Z,11.00
2022-12-23T11:11:57.635Z,11.10
2022-12-23T11:14:49.971Z,11.10
2022-12-23T11:17:22.970Z,11.10
2022-12-23T11:20:10.643Z,11.10
2022-12-23T11:22:48.532Z,11.10
2022-12-23T11:25:33.380Z,11.10
2022-12-23T11:28:00.171Z,11.00
2022-12-23T11:30:28.145Z,11.00
2022-12-23T11:32:55.154Z,11.00
2022-12-23T11:35:33.964Z,11.00
2022-12-23T11:38:02.578Z,10.90
2022-12-23T11:40:35.896Z,10.90
2022-12-23T11:43:16.371Z,10.90
2022-12-23T11:45:45.462Z,10.80
2022-12-23T11:48:28.790Z,10.80
2022-12-23T11:51:00.455Z,10.80
2022-12-23T11:53:28.200Z,10.70
2022-12-23T11:56:11.355Z,10.70
2022-12-23T11:59:11.608Z,10.70
2022-12-23T12:01:52.947Z,10.70
2022-12-23T12:04:23.806Z,10.70
2022-12-23T12:06:56.345Z,10.70
2022-12-23T12:09:24.801Z,10.70
2022-12-23T12:12:13.555Z,10.70
2022-12-23T12:14:49.266Z,10.70
2022-12-23T12:17:38.185Z,10.70
2022-12-23T12:20:27.561Z,10.70
2022-12-23T12:23:21.096Z,10.60
2022-12-23T12:25:56.677Z,10.60
2022-12-23T12:28:33.908Z,10.50
2022-12-23T12:31:26.972Z,10.60
2022-12-23T12:34:02.191Z,10.50
2022-12-23T12:37:04.576Z,10.60
2022-12-23T12:39:44.865Z,10.50
2022-12-23T12:42:24.871Z,10.50
2022-12-23T12:45:10.189Z,10.50
2022-12-23T12:47:53.808Z,10.40
2022-12-23T12:50:27.966Z,10.40
2022-12-23T12:52:59.555Z,10.30
2022-12-23T12:55:32.471Z,10.40
2022-12-23T12:58:04.654Z,10.40
2022-12-23T13:00:42.297Z,10.40
2022-12-23T13:03:36.797Z,10.40
2022-12-23T13:06:23.012Z,10.30
2022-12-23T13:08:57.430Z,10.30
2022-12-23T13:11:53.610Z,10.40
2022-12-23T13:14:35.263Z,10.30
2022-12-23T13:17:24.515Z,10.30
2022-12-23T13:20:17.435Z,10.30
2022-12-23T13:22:48.422Z,10.30
2022-12-23T13:25:26.961Z,10.30
2022-12-23T13:28:07.988Z,10.30
2022-12-23T13:30:55.138Z,10.30
2022-12-23T13:33:25.939Z,10.40
2022-12-23T13:36:01.314Z,10.40
2022-12-23T13:39:05.777Z,10.40
2022-12-23T13:41:50.635Z,10.40
2022-12-23T13:44:18.774Z,10.40
2022-12-23T13:47:04.751Z,10.40
2022-12-23T13:49:40.567Z,10.40
2022-12-23T13:52:11.566Z,10.40
2022-12-23T13:55:02.824Z,10.30
2022-12-23T13:58:14.649Z,10.30
2022-12-23T14:00:43.883Z,10.30
2022-12-23T14:03:13.678Z,10.30
2022-12-23T14:05:58.589Z,10.30
2022-12-23T14:08:41.603Z,10.30
2022-12-23T14:11:20.300Z,10.30
2022-12-23T14:13:55.280Z,10.30
2022-12-23T14:16:35.708Z,10.30
2022-12-23T14:19:23.136Z,10.30
2022-12-23T14:22:03.270Z,10.30
2022-12-23T14:25:06.857Z,10.30
2022-12-23T14:28:10.725Z,10.30
2022-12-23T14:30:42.564Z,10.30
2022-12-23T14:33:20.540Z,10.30
2022-12-23T14:35:47.175Z,10.30
2022-12-23T14:38:16.975Z,10.30
2022-12-23T14:40:44.968Z,10.30
2022-12-23T14:43:29.576Z,10.40
2022-12-23T14:45:57.774Z,10.40
2022-12-23T14:48:35.943Z,10.50
2022-12-23T14:51:33.737Z,10.50
2022-12-23T14:54:00.391Z,10.60
2022-12-23T14:56:39.180Z,10.60
2022-12-23T14:59:33.247Z,10.60
2022-12-23T15:02:03.526Z,10.60
2022-12-23T15:04:55.361Z,10.60
2022-12-23T15:07:35.483Z,10.60
2022-12-23T15:10:14.664Z,10.60
2022-12-23T15:12:46.288Z,10.60
2022-12-23T15:15:22.153Z,10.60
2022-12-23T15:18:00.882Z,10.70
2022-12-23T15:20:27.857Z,10.70
2022-12-23T15:23:02.726Z,10.70
2022-12-23T15:25:32.861Z,10.70
2022-12-23T15:28:02.854Z,10.70
2022-12-23T15:30:36.321Z,10.70
2022-12-23T15:33:27.926Z,10.80
2022-12-23T15:35:54.446Z,10.80
2022-12-23T15:38:25.164Z,10.90
2022-12-23T15:41:09.967Z,10.90
2022-12-23T15:43:43.482Z,10.80
2022-12-23T15:46:16.326Z,10.80
2022-12-23T15:48:43.641Z,10.90
2022-12-23T15:51:49.969Z,11.00
2022-12-23T15:54:31.754Z,11.00
2022-12-23T15:57:00.161Z,11.00
2022-12-23T15:59:34.974Z,11.20
2022-12-23T16:02:58.549Z,11.20
2022-12-23T16:05:08.169Z,11.40
2022-12-23T16:07:38.503Z,11.60
2022-12-23T16:10:19.608Z,11.90
2022-12-23T16:12:50.210Z,12.00
2022-12-23T16:15:29.558Z,12.10
2022-12-23T16:18:23.786Z,12.20
2022-12-23T16:20:54.862Z,12.30
2022-12-23T16:23:23.307Z,12.40
2022-12-23T16:25:53.076Z,12.50
2022-12-23T16:28:26.127Z,12.60
2022-12-23T16:30:56.594Z,12.60
2022-12-23T16:33:41.750Z,12.80
2022-12-23T16:36:32.493Z,12.90
2022-12-23T16:39:07.308Z,12.90
2022-12-23T16:41:34.771Z,13.00
2022-12-23T16:44:01.875Z,13.10
2022-12-23T16:46:34.092Z,13.00
2022-12-23T16:49:06.456Z,13.00
2022-12-23T16:51:34.247Z,13.00
2022-12-23T16:54:01.534Z,13.10
2022-12-23T16:56:32.069Z,13.00
2022-12-23T16:58:58.813Z,13.00
2022-12-23T17:01:29.492Z,13.00
2022-12-23T17:03:56.450Z,13.00
2022-12-23T17:06:24.001Z,13.00
2022-12-23T17:08:51.193Z,13.10
2022-12-23T17:11:19.786Z,13.10
2022-12-23T17:13:46.766Z,13.10
2022-12-23T17:16:20.036Z,13.10
2022-12-23T17:18:48.375Z,13.10
2022-12-23T17:21:25.928Z,13.10
2022-12-23T17:23:54.682Z,13.10
2022-12-23T17:26:24.470Z,13.00
2022-12-23T17:28:51.199Z,13.00
2022-12-23T17:31:26.191Z,13.00
2022-12-23T17:33:54.257Z,13.00
2022-12-23T17:36:21.513Z,13.00
2022-12-23T17:38:48.271Z,13.00
2022-12-23T17:41:29.848Z,13.00
2022-12-23T17:43:56.972Z,13.00
2022-12-23T17:46:24.828Z,13.00
2022-12-23T17:48:52.314Z,13.00
2022-12-23T17:51:22.869Z,13.10
2022-12-23T17:53:56.965Z,13.00
2022-12-23T17:56:28.241Z,13.00
2022-12-23T17:58:55.030Z,12.90
2022-12-23T18:01:30.822Z,12.90
2022-12-23T18:03:59.539Z,12.90
2022-12-23T18:06:28.618Z,12.90
2022-12-23T18:08:57.344Z,12.90
2022-12-23T18:11:37.610Z,12.90
2022-12-23T18:14:07.369Z,13.00
2022-12-23T18:16:34.186Z,12.90
2022-12-23T18:19:00.945Z,12.90
2022-12-23T18:21:31.617Z,12.90
2022-12-23T18:24:03.773Z,12.80
2022-12-23T18:26:30.510Z,12.80
2022-12-23T18:28:59.495Z,12.80
2022-12-23T18:31:27.403Z,12.90
2022-12-23T18:33:56.678Z,12.80
2022-12-23T18:36:34.098Z,12.90
2022-12-23T18:39:00.959Z,12.90
2022-12-23T18:41:31.044Z,12.90
2022-12-23T18:43:57.719Z,12.90
2022-12-23T18:46:24.470Z,12.80
2022-12-23T18:48:51.788Z,12.80
2022-12-23T18:51:21.065Z,12.80
2022-12-23T18:53:48.467Z,12.70
2022-12-23T18:56:16.507Z,12.70
2022-12-23T18:58:43.487Z,12.70
2022-12-23T19:01:16.938Z,12.80
2022-12-23T19:03:46.449Z,12.70
2022-12-23T19:06:14.624Z,12.80
2022-12-23T19:08:44.218Z,12.90
2022-12-23T19:11:23.431Z,12.80
2022-12-23T19:13:53.115Z,12.80
2022-12-23T19:16:23.274Z,12.80
2022-12-23T19:18:50.428Z,12.70
2022-12-23T19:21:17.943Z,12.70
2022-12-23T19:23:44.804Z,12.80
2022-12-23T19:26:13.874Z,12.80
2022-12-23T19:28:41.640Z,12.80
2022-12-23T19:31:13.641Z,12.80
2022-12-23T19:33:42.022Z,12.70
2022-12-23T19:36:13.707Z,12.80
2022-12-23T19:38:40.631Z,12.80
2022-12-23T19:41:08.146Z,12.80
2022-12-23T19:43:36.978Z,12.70
2022-12-23T19:46:07.209Z,12.70
2022-12-23T19:48:34.701Z,12.70
2022-12-23T19:51:05.563Z,12.70
2022-12-23T19:53:32.347Z,12.70
2022-12-23T19:56:01.324Z,12.70
2022-12-23T19:58:31.393Z,12.70
2022-12-23T20:01:14.469Z,12.70
2022-12-23T20:03:43.395Z,12.80
2022-12-23T20:06:19.451Z,12.70
2022-12-23T20:08:48.184Z,12.80
2022-12-23T20:11:18.762Z,12.80
2022-12-23T20:13:46.729Z,12.70
2022-12-23T20:16:13.737Z,12.70
2022-12-23T20:18:40.499Z,12.70
2022-12-23T20:21:07.216Z,12.70
2022-12-23T20:23:34.732Z,12.80
2022-12-23T20:26:04.664Z,12.70
2022-12-23T20:28:31.933Z,12.70
2022-12-23T20:31:19.037Z,12.60
2022-12-23T20:33:47.089Z,12.70
2022-12-23T20:36:24.524Z,12.70
2022-12-23T20:38:52.144Z,12.70
2022-12-23T20:41:32.789Z,12.70
2022-12-23T20:46:46.987Z,12.70
2022-12-23T20:49:13.955Z,12.70
2022-12-23T20:51:40.689Z,12.70
2022-12-23T20:54:07.700Z,12.70
2022-12-23T20:56:34.430Z,12.70
2022-12-23T20:59:04.019Z,12.70
2022-12-23T21:01:38.375Z,12.70
2022-12-23T21:04:11.784Z,12.70
2022-12-23T21:06:39.541Z,12.80
2022-12-23T21:09:08.663Z,12.70
2022-12-23T21:11:37.907Z,12.70
2022-12-23T21:14:07.164Z,12.70
2022-12-23T21:16:36.530Z,12.70
2022-12-23T21:19:04.399Z,12.70
2022-12-23T21:21:33.965Z,12.80
2022-12-23T21:24:07.207Z,12.70
2022-12-23T21:26:39.715Z,12.80
2022-12-23T21:29:08.763Z,12.80
2022-12-23T21:31:38.192Z,12.80
2022-12-23T21:34:05.127Z,12.70
2022-12-23T21:36:37.180Z,12.80
2022-12-23T21:39:05.621Z,12.70
2022-12-23T21:41:36.350Z,12.70
2022-12-23T21:44:03.595Z,12.70
2022-12-23T21:46:32.965Z,12.70
2022-12-23T21:49:00.106Z,12.60
2022-12-23T21:51:39.625Z,12.60
2022-12-23T21:54:07.034Z,12.60
2022-12-23T21:56:33.745Z,12.60
2022-12-23T21:59:08.801Z,12.50
2022-12-23T22:01:40.235Z,12.50
2022-12-23T22:04:07.068Z,12.50
2022-12-23T22:06:37.111Z,12.50
2022-12-23T22:09:05.772Z,12.50
2022-12-23T22:11:36.684Z,12.50
2022-12-23T22:14:06.306Z,12.50
2022-12-23T22:16:34.058Z,12.50
2022-12-23T22:19:03.267Z,12.50
2022-12-23T22:21:32.404Z,12.50
2022-12-23T22:23:59.858Z,12.40
2022-12-23T22:26:31.299Z,12.50
2022-12-23T22:29:01.982Z,12.50
2022-12-23T22:31:34.756Z,12.50
2022-12-23T22:34:02.217Z,12.40
2022-12-23T22:36:29.629Z,12.50
2022-12-23T22:38:59.827Z,12.40
2022-12-23T22:41:30.251Z,12.40
2022-12-23T22:43:58.034Z,12.40
2022-12-23T22:46:25.243Z,12.40
2022-12-23T22:48:54.471Z,12.40
2022-12-23T22:51:24.128Z,12.40
2022-12-23T22:53:50.932Z,12.40
2022-12-23T22:56:19.767Z,12.40
2022-12-23T22:58:46.969Z,12.40
2022-12-23T23:01:36.479Z,12.40
2022-12-23T23:04:07.916Z,12.40
2022-12-23T23:06:38.127Z,12.30
2022-12-23T23:09:11.915Z,12.30
2022-12-23T23:11:39.027Z,12.30
2022-12-23T23:14:08.137Z,12.30
2022-12-23T23:16:34.944Z,12.30
2022-12-23T23:19:02.050Z,12.20
2022-12-23T23:21:31.483Z,12.20
2022-12-23T23:24:00.463Z,12.20
2022-12-23T23:26:27.494Z,12.20
2022-12-23T23:28:58.354Z,12.20
2022-12-23T23:31:41.899Z,12.20
2022-12-23T23:34:09.424Z,12.20
2022-12-23T23:36:36.401Z,12.20
2022-12-23T23:39:03.245Z,12.10
2022-12-23T23:41:29.957Z,12.10
2022-12-23T23:43:56.634Z,12.20
2022-12-23T23:46:23.413Z,12.10
2022-12-23T23:48:50.140Z,12.10
2022-12-23T23:51:16.899Z,12.10
2022-12-23T23:53:43.604Z,12.10
2022-12-23T23:56:10.481Z,12.10
2022-12-23T23:58:39.388Z,12.10
